EIN27T EIDW-EINN
Flight info
| Callsign | EIN27T |
|---|---|
| Flight time | N/A |
| Altitude | 20000 |
| Route | PELIG2J PELIG DCT DIGAN DIGAN2E |
| Aircraft | A21N/M-SDE2E3FGHIRWXY/LB1 |
Departure
| Time | 2026-04-30 22:41 |
|---|---|
| Airport | Dublin Airport (EIDW) |
Arrival
| Time | N/A |
|---|---|
| Airport | Shannon Airport (EINN) |
| Time | Latitude | Longitude | Altitude | Speed | Heading |
|---|---|---|---|---|---|
| 2026-04-30 22:24 | 53.42612 | -6.24744 | 214 ft | 0 kts | 75° |
| 2026-04-30 22:32 | 53.42610 | -6.24760 | 214 ft | 3 kts | 75° |
| 2026-04-30 22:33 | 53.42602 | -6.24851 | 220 ft | 3 kts | 121° |
| 2026-04-30 22:33 | 53.42624 | -6.24886 | 214 ft | 0 kts | 156° |
| 2026-04-30 22:36 | 53.42609 | -6.24874 | 217 ft | 3 kts | 156° |
| 2026-04-30 22:36 | 53.42577 | -6.24851 | 221 ft | 8 kts | 157° |
| 2026-04-30 22:37 | 53.42290 | -6.24898 | 223 ft | 7 kts | 225° |
| 2026-04-30 22:37 | 53.42257 | -6.24957 | 214 ft | 11 kts | 229° |
| 2026-04-30 22:37 | 53.42213 | -6.25335 | 216 ft | 27 kts | 276° |
| 2026-04-30 22:38 | 53.42264 | -6.26258 | 217 ft | 26 kts | 275° |
| 2026-04-30 22:38 | 53.42313 | -6.27141 | 220 ft | 34 kts | 276° |
| 2026-04-30 22:39 | 53.42335 | -6.27539 | 214 ft | 37 kts | 275° |
| 2026-04-30 22:39 | 53.42371 | -6.28213 | 217 ft | 7 kts | 277° |
| 2026-04-30 22:40 | 53.42183 | -6.27964 | 215 ft | 31 kts | 97° |
| 2026-04-30 22:41 | 53.41952 | -6.22918 | 1214 ft | 204 kts | 98° |
| 2026-04-30 22:41 | 53.41647 | -6.17836 | 3203 ft | 236 kts | 102° |
| 2026-04-30 22:42 | 53.40975 | -6.06251 | 7522 ft | 260 kts | 101° |
| 2026-04-30 22:43 | 53.39583 | -6.00801 | 9635 ft | 258 kts | 140° |
| 2026-04-30 22:43 | 53.36849 | -5.98757 | 10898 ft | 280 kts | 176° |
| 2026-04-30 22:44 | 53.32764 | -5.99977 | 12299 ft | 310 kts | 192° |
| 2026-04-30 22:45 | 53.24324 | -6.04511 | 16036 ft | 332 kts | 208° |
| 2026-04-30 22:45 | 53.21217 | -6.10392 | 17840 ft | 358 kts | 243° |
| 2026-04-30 22:46 | 53.20366 | -6.18798 | 19392 ft | 382 kts | 262° |
| 2026-04-30 22:47 | 53.20631 | -6.37063 | 21977 ft | 401 kts | 265° |
| 2026-04-30 22:47 | 53.20678 | -6.46420 | 22103 ft | 404 kts | 264° |
| 2026-04-30 22:48 | 53.20642 | -6.55811 | 22102 ft | 405 kts | 263° |
| 2026-04-30 22:49 | 53.20546 | -6.69887 | 22109 ft | 405 kts | 263° |
| 2026-04-30 22:49 | 53.20443 | -6.83947 | 22089 ft | 406 kts | 263° |
| 2026-04-30 22:50 | 53.20285 | -7.02768 | 22087 ft | 405 kts | 263° |
| 2026-04-30 22:51 | 53.20194 | -7.12182 | 22094 ft | 405 kts | 263° |
| 2026-04-30 22:51 | 53.20097 | -7.21583 | 22091 ft | 406 kts | 262° |
| 2026-04-30 22:52 | 53.20044 | -7.26299 | 22089 ft | 406 kts | 262° |
| 2026-04-30 22:52 | 53.19135 | -7.35366 | 22092 ft | 390 kts | 242° |
| 2026-04-30 22:53 | 53.16887 | -7.43528 | 22084 ft | 386 kts | 237° |
| 2026-04-30 22:53 | 53.14508 | -7.51508 | 22084 ft | 386 kts | 237° |
| 2026-04-30 22:53 | 53.13306 | -7.55504 | 22083 ft | 386 kts | 237° |
| 2026-04-30 22:54 | 53.10891 | -7.63508 | 22082 ft | 386 kts | 237° |
| 2026-04-30 22:55 | 53.07257 | -7.75502 | 22082 ft | 388 kts | 236° |
| 2026-04-30 22:55 | 53.04841 | -7.83442 | 22080 ft | 388 kts | 236° |
| 2026-04-30 22:56 | 53.02400 | -7.91435 | 22080 ft | 388 kts | 236° |
| 2026-04-30 22:56 | 52.98731 | -8.03403 | 22076 ft | 387 kts | 236° |
| 2026-04-30 22:57 | 52.96288 | -8.11346 | 21929 ft | 382 kts | 236° |
| 2026-04-30 22:57 | 52.93996 | -8.19110 | 20913 ft | 373 kts | 242° |
| 2026-04-30 22:58 | 52.92903 | -8.27540 | 19789 ft | 373 kts | 253° |
| 2026-04-30 22:59 | 52.91718 | -8.40131 | 18087 ft | 364 kts | 253° |
| 2026-04-30 22:59 | 52.90533 | -8.52343 | 16457 ft | 351 kts | 253° |